Time;durP1;ratioP1;P1;durP2;ratioP2;P2;SDS_P1;SDS_P2;PMS_P1;PMS_P2;Temp;Humidity;BMP_temperature;BMP_pressure;BME280_temperature;BME280_humidity;BME280_pressure;Samples;Min_cycle;Max_cycle;Signal;HPM_P1;HPM_P2
2021/06/08 00:02:21;;;;;;;35.05;22.05;;;17.90;99.90;;;;;;5015675;28;20072;-72
2021/06/08 00:04:47;;;;;;;46.63;24.50;;;17.90;99.90;;;;;;5015738;28;20049;-70
2021/06/08 00:07:13;;;;;;;34.70;22.52;;;18.00;99.90;;;;;;5015715;28;20092;-70
2021/06/08 00:09:39;;;;;;;36.22;22.15;;;17.90;99.90;;;;;;5015933;28;20030;-72
2021/06/08 00:12:05;;;;;;;35.33;22.48;;;17.90;99.90;;;;;;5017172;28;20034;-71
2021/06/08 00:14:30;;;;;;;33.90;22.42;;;18.00;99.90;;;;;;5015388;28;20030;-71
2021/06/08 00:16:56;;;;;;;34.15;22.98;;;17.90;99.90;;;;;;5015354;28;20034;-70
2021/06/08 00:19:21;;;;;;;37.08;22.42;;;17.90;99.90;;;;;;5015640;28;20041;-69
2021/06/08 00:21:47;;;;;;;35.63;21.90;;;17.90;99.90;;;;;;5014622;28;20052;-70
2021/06/08 00:24:12;;;;;;;34.80;21.83;;;18.00;99.90;;;;;;5016961;28;20033;-71
2021/06/08 00:26:38;;;;;;;34.97;22.02;;;18.00;99.90;;;;;;5015414;28;20037;-69
2021/06/08 00:29:04;;;;;;;34.75;22.90;;;18.10;99.90;;;;;;5015543;28;20029;-71
2021/06/08 00:31:29;;;;;;;35.83;22.50;;;18.10;99.90;;;;;;5015515;28;20034;-71
2021/06/08 00:33:55;;;;;;;36.67;23.70;;;18.10;99.90;;;;;;5014067;28;20042;-70
2021/06/08 00:36:21;;;;;;;44.78;23.27;;;18.10;99.90;;;;;;5015445;28;20356;-70
2021/06/08 00:38:46;;;;;;;34.42;21.77;;;18.10;99.90;;;;;;5016857;28;20029;-71
2021/06/08 00:41:12;;;;;;;38.10;21.92;;;18.10;99.90;;;;;;5015345;28;20025;-71
2021/06/08 00:43:38;;;;;;;35.17;23.23;;;18.10;99.90;;;;;;5015359;28;20053;-70
2021/06/08 00:46:04;;;;;;;34.00;22.45;;;18.10;99.90;;;;;;5015521;28;20046;-71
2021/06/08 00:48:30;;;;;;;38.20;22.88;;;18.10;99.90;;;;;;5015420;28;20359;-72
2021/06/08 00:50:56;;;;;;;34.53;22.67;;;18.20;99.90;;;;;;5016741;28;20026;-72
2021/06/08 00:53:22;;;;;;;38.30;21.70;;;18.10;99.90;;;;;;5015285;28;20323;-72
2021/06/08 00:55:47;;;;;;;33.40;21.17;;;18.10;99.90;;;;;;5015187;28;20515;-72
2021/06/08 00:58:13;;;;;;;34.65;21.33;;;18.00;99.90;;;;;;5011330;28;20432;-72
2021/06/08 01:00:39;;;;;;;36.30;21.23;;;18.10;99.90;;;;;;5012252;28;20117;-70
2021/06/08 01:03:05;;;;;;;30.65;19.50;;;18.10;99.90;;;;;;5013743;28;20029;-71
2021/06/08 01:05:31;;;;;;;30.67;20.70;;;18.10;99.90;;;;;;5011145;28;20156;-71
2021/06/08 01:07:56;;;;;;;32.63;20.92;;;18.00;99.90;;;;;;5012266;28;20026;-71
2021/06/08 01:10:22;;;;;;;35.20;20.52;;;18.10;99.90;;;;;;5004010;28;20468;-71
2021/06/08 01:12:48;;;;;;;32.97;20.73;;;18.00;99.90;;;;;;4996183;28;20074;-71
2021/06/08 01:15:14;;;;;;;30.25;19.45;;;17.90;99.90;;;;;;5013701;28;20060;-72
2021/06/08 01:17:40;;;;;;;33.38;20.65;;;18.00;99.90;;;;;;5011978;28;20038;-71
2021/06/08 01:20:08;;;;;;;30.63;20.58;;;18.00;99.90;;;;;;5012044;28;20061;-71
2021/06/08 01:22:34;;;;;;;29.65;19.20;;;18.00;99.90;;;;;;5012141;28;20112;-70
2021/06/08 01:24:59;;;;;;;32.70;18.70;;;18.00;99.90;;;;;;5011879;28;20096;-71
2021/06/08 01:27:25;;;;;;;29.27;18.65;;;17.90;99.90;;;;;;5011583;28;20038;-71
2021/06/08 01:29:53;;;;;;;32.05;18.95;;;17.80;99.90;;;;;;5013120;28;20113;-71
2021/06/08 01:32:25;;;;;;;32.38;19.23;;;17.90;99.90;;;;;;5011631;28;20050;-70
2021/06/08 01:34:53;;;;;;;28.40;18.20;;;17.90;99.90;;;;;;5009972;28;20125;-71
2021/06/08 01:37:18;;;;;;;;;;;17.80;99.90;;;;;;4992711;28;20046;-71
2021/06/08 01:39:46;;;;;;;30.05;17.08;;;17.80;99.90;;;;;;5007312;28;19914;-70
2021/06/08 01:42:13;;;;;;;32.63;18.17;;;17.80;99.90;;;;;;4993416;28;20023;-70
2021/06/08 01:44:44;;;;;;;35.13;18.83;;;17.80;99.90;;;;;;4992009;28;20062;-71
2021/06/08 01:47:11;;;;;;;30.48;18.05;;;17.70;99.90;;;;;;4991855;28;20129;-70
2021/06/08 01:49:37;;;;;;;30.83;19.10;;;17.70;99.90;;;;;;4991685;28;20061;-70
2021/06/08 01:52:22;;;;;;;25.88;16.52;;;17.80;99.90;;;;;;4990855;28;20041;-72
2021/06/08 01:55:04;;;;;;;31.05;17.98;;;17.70;99.90;;;;;;4991474;28;20042;-69
2021/06/08 01:57:37;;;;;;;29.15;19.02;;;17.60;99.90;;;;;;4990178;28;20460;-71
2021/06/08 02:00:07;;;;;;;28.40;17.65;;;17.60;99.90;;;;;;4973748;28;20033;-72
2021/06/08 02:03:00;;;;;;;33.13;17.48;;;17.60;99.90;;;;;;4972068;28;20035;-70
2021/06/08 02:05:51;;;;;;;24.40;17.45;;;17.60;99.90;;;;;;4988708;28;20049;-70
2021/06/08 02:08:38;;;;;;;26.27;17.77;;;17.60;99.90;;;;;;4990343;28;20058;-71
2021/06/08 02:11:15;;;;;;;25.07;16.93;;;17.60;99.90;;;;;;4991656;28;20058;-70
2021/06/08 02:13:50;;;;;;;24.08;17.75;;;17.60;99.90;;;;;;4990942;28;20275;-71
2021/06/08 02:16:28;;;;;;;27.90;17.55;;;17.50;99.90;;;;;;4991427;28;20132;-71
2021/06/08 02:18:54;;;;;;;27.48;17.25;;;17.50;99.90;;;;;;4986866;28;20548;-71
2021/06/08 02:21:24;;;;;;;28.35;17.98;;;17.50;99.90;;;;;;4972108;28;20765;-72
2021/06/08 02:23:53;;;;;;;28.27;17.20;;;17.50;99.90;;;;;;4991100;28;20030;-71
2021/06/08 02:26:19;;;;;;;26.30;17.52;;;17.40;99.90;;;;;;4991081;28;20038;-71
2021/06/08 02:28:46;;;;;;;27.85;18.45;;;17.40;99.90;;;;;;4989696;28;20479;-70
2021/06/08 02:31:12;;;;;;;27.30;16.75;;;17.40;99.90;;;;;;4984039;28;20094;-70
2021/06/08 02:33:39;;;;;;;25.45;16.88;;;17.50;99.90;;;;;;4971362;28;20409;-72
2021/06/08 02:36:08;;;;;;;25.50;17.67;;;17.40;99.90;;;;;;4972887;28;20034;-72
2021/06/08 02:38:35;;;;;;;25.50;16.55;;;17.50;99.90;;;;;;4971648;28;20039;-72
2021/06/08 02:41:03;;;;;;;26.40;17.13;;;17.50;99.90;;;;;;4985225;28;20042;-71
2021/06/08 02:43:31;;;;;;;35.03;17.90;;;17.50;99.90;;;;;;4990264;28;20054;-70
2021/06/08 02:45:58;;;;;;;34.72;17.83;;;17.50;99.90;;;;;;4990894;28;20034;-71
2021/06/08 02:48:25;;;;;;;25.08;16.75;;;17.50;99.90;;;;;;4989742;28;20014;-70
2021/06/08 02:50:52;;;;;;;23.48;16.20;;;17.50;99.90;;;;;;4992129;28;20520;-71
2021/06/08 02:53:19;;;;;;;27.10;16.50;;;17.40;99.90;;;;;;4990561;28;20030;-71
2021/06/08 02:55:44;;;;;;;28.50;16.00;;;17.40;99.90;;;;;;4990467;28;20473;-70
2021/06/08 02:58:11;;;;;;;27.70;16.25;;;17.40;99.90;;;;;;4990423;28;20031;-71
2021/06/08 03:00:39;;;;;;;27.55;15.90;;;17.50;99.90;;;;;;4990260;28;20041;-71
2021/06/08 03:03:07;;;;;;;22.75;15.95;;;17.50;99.90;;;;;;4991899;28;20054;-73
2021/06/08 03:05:42;;;;;;;23.05;16.40;;;17.50;99.90;;;;;;4988949;28;20038;-71
2021/06/08 03:08:16;;;;;;;22.17;15.50;;;17.50;99.90;;;;;;4989895;28;20042;-72
2021/06/08 03:10:43;;;;;;;26.77;16.63;;;17.50;99.90;;;;;;4990366;28;20113;-72
2021/06/08 03:13:11;;;;;;;25.67;16.23;;;17.50;99.90;;;;;;4990238;28;20476;-72
2021/06/08 03:15:42;;;;;;;23.75;17.10;;;17.50;99.90;;;;;;4989067;28;20026;-71
2021/06/08 03:18:10;;;;;;;26.83;17.13;;;17.50;99.90;;;;;;4991817;28;20018;-72
2021/06/08 03:20:46;;;;;;;27.70;17.27;;;17.50;99.90;;;;;;4989889;28;20062;-70
2021/06/08 03:23:15;;;;;;;29.38;18.00;;;17.50;99.90;;;;;;4989266;28;20136;-70
2021/06/08 03:25:43;;;;;;;30.27;17.30;;;17.40;99.90;;;;;;4990191;28;20079;-70
2021/06/08 03:28:10;;;;;;;29.48;17.55;;;17.50;99.90;;;;;;4990254;28;20038;-70
2021/06/08 03:30:37;;;;;;;25.55;16.00;;;17.50;99.90;;;;;;4990016;28;20046;-70
2021/06/08 03:33:03;;;;;;;29.35;16.75;;;17.50;99.90;;;;;;4991610;28;20034;-73
2021/06/08 03:35:30;;;;;;;29.02;16.92;;;17.50;99.90;;;;;;4989989;28;20038;-72
2021/06/08 03:37:57;;;;;;;25.05;16.67;;;17.50;99.90;;;;;;4990292;28;20119;-71
2021/06/08 03:40:24;;;;;;;29.47;17.43;;;17.50;99.90;;;;;;4989821;28;20039;-71
2021/06/08 03:42:51;;;;;;;24.63;15.60;;;17.40;99.90;;;;;;4989967;28;20414;-71
2021/06/08 03:45:17;;;;;;;29.40;16.88;;;17.50;99.90;;;;;;4991136;28;20046;-71
2021/06/08 03:47:45;;;;;;;27.38;17.33;;;17.50;99.90;;;;;;4970882;28;20073;-71
2021/06/08 03:50:12;;;;;;;24.50;17.73;;;17.40;99.90;;;;;;4970779;28;20574;-71
2021/06/08 03:52:39;;;;;;;30.77;18.58;;;17.40;99.90;;;;;;4980991;28;20550;-70
2021/06/08 03:55:06;;;;;;;31.85;18.33;;;17.50;99.90;;;;;;4990053;28;20038;-71
2021/06/08 03:57:38;;;;;;;31.85;19.90;;;17.50;99.90;;;;;;4988174;28;20092;-71
2021/06/08 04:00:06;;;;;;;31.63;19.00;;;17.40;99.90;;;;;;4970800;28;20039;-72
2021/06/08 04:02:32;;;;;;;32.75;19.73;;;17.40;99.90;;;;;;4970455;28;20039;-71
2021/06/08 04:04:59;;;;;;;38.25;20.33;;;17.50;99.90;;;;;;4983271;28;20043;-70
2021/06/08 04:07:25;;;;;;;34.65;20.75;;;17.50;99.90;;;;;;4988575;28;20042;-71
2021/06/08 04:09:50;;;;;;;37.53;21.63;;;17.30;99.90;;;;;;4989553;28;20034;-70
2021/06/08 04:12:22;;;;;;;35.88;21.02;;;17.40;99.90;;;;;;4991335;28;20031;-71
2021/06/08 04:14:49;;;;;;;35.55;21.48;;;17.50;99.90;;;;;;4989725;28;20386;-70
2021/06/08 04:17:16;;;;;;;30.85;19.73;;;17.50;99.90;;;;;;4989572;28;20030;-70
2021/06/08 04:19:43;;;;;;;34.30;21.98;;;17.50;99.90;;;;;;4989538;28;20034;-70
2021/06/08 04:22:09;;;;;;;34.28;20.85;;;17.60;99.90;;;;;;4989627;28;20042;-71
2021/06/08 04:24:34;;;;;;;33.72;21.45;;;17.50;99.90;;;;;;4989730;28;20088;-72
2021/06/08 04:27:00;;;;;;;37.85;22.95;;;17.60;99.90;;;;;;4989803;28;20027;-70
2021/06/08 04:29:27;;;;;;;36.78;21.67;;;17.50;99.90;;;;;;4989433;28;20030;-70
2021/06/08 04:31:55;;;;;;;34.40;22.60;;;17.50;99.90;;;;;;4989984;28;20039;-71
2021/06/08 04:34:21;;;;;;;41.70;24.08;;;17.40;99.90;;;;;;4993347;28;20057;-70
2021/06/08 04:36:48;;;;;;;36.30;22.52;;;17.40;99.90;;;;;;4993500;28;20069;-70
2021/06/08 04:39:14;;;;;;;36.80;21.98;;;17.40;99.90;;;;;;4994782;28;20018;-71
2021/06/08 04:41:40;;;;;;;36.60;22.55;;;17.50;99.90;;;;;;4992895;28;20038;-71
2021/06/08 04:44:07;;;;;;;35.63;23.20;;;17.60;99.90;;;;;;4992941;28;20092;-72
2021/06/08 04:46:37;;;;;;;41.35;22.73;;;17.60;99.90;;;;;;4993150;28;20089;-70
2021/06/08 04:49:03;;;;;;;38.42;23.48;;;17.50;99.90;;;;;;4993123;28;20465;-70
2021/06/08 04:51:28;;;;;;;40.25;24.30;;;17.60;99.90;;;;;;4992506;28;20357;-69
2021/06/08 04:53:54;;;;;;;43.70;24.15;;;17.50;99.90;;;;;;4993080;28;20026;-71
2021/06/08 04:56:20;;;;;;;41.33;24.95;;;17.60;99.90;;;;;;4993061;28;20030;-70
2021/06/08 04:58:45;;;;;;;38.05;23.48;;;17.40;99.90;;;;;;4991443;28;20030;-70
2021/06/08 05:01:25;;;;;;;36.35;23.40;;;17.30;99.90;;;;;;4992830;28;20050;-70
2021/06/08 05:03:57;;;;;;;39.13;23.27;;;17.30;99.90;;;;;;4992670;28;20046;-70
2021/06/08 05:06:36;;;;;;;36.78;23.70;;;17.40;99.90;;;;;;4992203;28;20022;-70
2021/06/08 05:09:06;;;;;;;37.22;23.92;;;17.50;99.90;;;;;;4993796;28;20651;-71
2021/06/08 05:11:38;;;;;;;40.13;23.63;;;17.50;99.90;;;;;;4992552;28;20121;-71
2021/06/08 05:14:07;;;;;;;45.58;24.65;;;17.40;99.90;;;;;;4978572;28;20023;-70
2021/06/08 05:16:33;;;;;;;46.15;24.45;;;17.50;99.90;;;;;;4973280;28;20045;-70
2021/06/08 05:19:01;;;;;;;45.05;24.27;;;17.60;99.90;;;;;;4977933;28;20056;-70
2021/06/08 05:21:28;;;;;;;37.55;23.95;;;17.60;99.90;;;;;;4991332;28;20086;-70
2021/06/08 05:23:54;;;;;;;37.88;24.50;;;17.60;99.90;;;;;;4974387;28;20097;-70
2021/06/08 05:26:21;;;;;;;42.75;24.65;;;17.70;99.90;;;;;;4987849;28;20369;-71
2021/06/08 05:28:47;;;;;;;37.65;23.80;;;17.70;99.90;;;;;;4990779;28;20047;-72
2021/06/08 05:31:18;;;;;;;45.00;25.02;;;17.70;99.90;;;;;;4992242;28;20042;-72
2021/06/08 05:33:44;;;;;;;44.95;26.20;;;17.70;99.90;;;;;;4989090;28;20027;-72
2021/06/08 05:36:09;;;;;;;39.58;24.08;;;17.70;99.90;;;;;;4974277;28;20030;-72
2021/06/08 05:38:38;;;;;;;46.22;26.10;;;17.80;99.90;;;;;;4972673;28;20524;-71
2021/06/08 05:41:04;;;;;;;55.97;25.52;;;17.70;99.90;;;;;;4986589;28;20054;-71
2021/06/08 05:43:30;;;;;;;48.60;25.00;;;17.70;99.90;;;;;;4990954;28;20069;-73
2021/06/08 05:45:57;;;;;;;42.22;25.30;;;17.80;99.90;;;;;;4990539;28;20035;-72
2021/06/08 05:48:23;;;;;;;41.63;24.10;;;17.80;99.90;;;;;;4991273;28;20359;-71
2021/06/08 05:50:48;;;;;;;36.40;23.98;;;17.80;99.90;;;;;;4993144;28;20508;-72
2021/06/08 05:53:18;;;;;;;46.90;24.90;;;17.80;99.90;;;;;;4992643;28;20194;-78
2021/06/08 05:55:48;;;;;;;43.00;24.17;;;17.80;99.90;;;;;;5008413;28;20038;-77
2021/06/08 05:58:13;;;;;;;40.10;25.55;;;17.80;99.90;;;;;;4992791;28;20118;-74
2021/06/08 06:00:39;;;;;;;46.15;24.60;;;17.90;99.90;;;;;;4993789;28;20051;-78
2021/06/08 06:03:08;;;;;;;40.17;24.17;;;17.90;99.90;;;;;;4995368;28;20460;-76
2021/06/08 06:05:37;;;;;;;40.10;23.38;;;17.90;99.90;;;;;;4992518;28;20041;-77
2021/06/08 06:08:05;;;;;;;50.85;27.02;;;17.90;99.90;;;;;;4964806;28;20121;-82
2021/06/08 06:10:31;;;;;;;44.35;26.00;;;17.70;99.90;;;;;;4991675;28;20046;-81
2021/06/08 06:12:57;;;;;;;38.63;23.33;;;17.70;99.90;;;;;;4995494;28;20037;-78
2021/06/08 06:15:26;;;;;;;44.40;25.27;;;17.80;99.90;;;;;;4994737;28;20014;-78
2021/06/08 06:17:52;;;;;;;45.78;26.50;;;17.90;99.90;;;;;;4994901;28;20023;-79
2021/06/08 06:20:18;;;;;;;48.28;25.73;;;17.90;99.90;;;;;;4991396;28;20420;-80
2021/06/08 06:22:44;;;;;;;46.80;25.05;;;18.00;99.90;;;;;;4990826;28;20031;-79
2021/06/08 06:25:11;;;;;;;42.42;24.80;;;17.90;99.90;;;;;;4991230;28;20054;-77
2021/06/08 06:27:39;;;;;;;43.33;25.27;;;17.90;99.90;;;;;;4991164;28;20022;-76
2021/06/08 06:30:06;;;;;;;46.67;25.55;;;17.70;99.90;;;;;;4991340;28;20113;-81
2021/06/08 06:32:33;;;;;;;48.22;25.88;;;17.80;99.90;;;;;;4991190;28;20088;-78
2021/06/08 06:34:59;;;;;;;47.90;26.40;;;17.90;99.90;;;;;;4990986;28;20714;-79
2021/06/08 06:37:26;;;;;;;45.92;26.20;;;17.90;99.90;;;;;;4990953;28;20057;-78
2021/06/08 06:39:57;;;;;;;52.30;25.65;;;17.70;99.90;;;;;;4990694;28;20038;-76
2021/06/08 06:42:25;;;;;;;48.30;27.02;;;17.70;99.90;;;;;;4989628;28;20029;-75
2021/06/08 06:44:52;;;;;;;47.78;26.58;;;17.90;99.90;;;;;;5007210;28;20073;-74
2021/06/08 06:47:18;;;;;;;45.30;25.67;;;17.90;99.90;;;;;;4990702;28;20054;-73
2021/06/08 06:49:44;;;;;;;51.33;27.02;;;18.00;99.90;;;;;;4990718;28;20382;-74
2021/06/08 06:52:11;;;;;;;45.45;26.25;;;18.00;99.90;;;;;;4990574;28;20491;-77
2021/06/08 06:54:37;;;;;;;49.75;28.08;;;18.00;99.90;;;;;;4989772;28;20487;-76
2021/06/08 06:57:05;;;;;;;49.80;27.80;;;18.10;99.90;;;;;;4991932;28;20042;-77
2021/06/08 06:59:32;;;;;;;52.28;26.25;;;18.10;99.90;;;;;;4990430;28;20468;-76
2021/06/08 07:02:02;;;;;;;49.10;26.42;;;18.20;99.90;;;;;;4989253;28;20080;-77
2021/06/08 07:04:28;;;;;;;47.92;27.33;;;18.20;99.90;;;;;;4990187;28;20603;-77
2021/06/08 07:06:54;;;;;;;53.47;27.70;;;18.30;99.90;;;;;;4989913;28;20046;-78
2021/06/08 07:09:25;;;;;;;56.67;27.73;;;18.20;99.90;;;;;;4991809;28;20027;-85
2021/06/08 07:11:53;;;;;;;51.90;27.85;;;18.30;99.90;;;;;;4990645;28;20508;-80
2021/06/08 07:14:19;;;;;;;;;;;18.20;99.90;;;;;;4990740;28;20484;-79
2021/06/08 07:16:46;;;;;;;44.20;25.48;;;18.30;99.90;;;;;;4990434;28;19914;-76
2021/06/08 07:19:13;;;;;;;54.63;28.02;;;18.30;99.90;;;;;;4989409;28;20121;-79
2021/06/08 07:21:41;;;;;;;53.25;28.08;;;18.30;99.90;;;;;;4989931;28;20034;-77
2021/06/08 07:24:07;;;;;;;48.80;26.95;;;18.30;99.90;;;;;;4991484;28;20037;-76
2021/06/08 07:26:33;;;;;;;47.85;26.90;;;18.20;99.90;;;;;;4990377;28;20038;-76
2021/06/08 07:28:59;;;;;;;50.05;27.48;;;18.20;99.90;;;;;;4989050;28;20652;-76
2021/06/08 07:31:36;;;;;;;49.10;29.00;;;18.20;99.90;;;;;;4989976;28;20137;-75
2021/06/08 07:34:06;;;;;;;56.53;28.98;;;18.40;99.90;;;;;;4990188;28;20095;-76
2021/06/08 07:36:45;;;;;;;54.30;28.85;;;18.40;99.90;;;;;;4990473;28;20034;-78
2021/06/08 07:39:20;;;;;;;51.33;28.20;;;18.40;99.90;;;;;;4991250;28;20015;-78
2021/06/08 07:42:14;;;;;;;51.50;28.15;;;18.50;99.90;;;;;;4990231;28;20039;-80
2021/06/08 07:44:47;;;;;;;50.92;27.50;;;18.50;99.90;;;;;;4986720;28;20043;-78
2021/06/08 07:47:16;;;;;;;46.63;26.45;;;18.50;99.90;;;;;;4987146;28;20031;-80
2021/06/08 07:49:43;;;;;;;49.40;28.38;;;18.60;99.90;;;;;;4990197;28;20427;-79
2021/06/08 07:52:09;;;;;;;45.85;27.25;;;18.50;99.90;;;;;;4990310;28;20062;-79
2021/06/08 07:54:37;;;;;;;50.38;27.38;;;18.60;99.90;;;;;;4989930;28;20027;-78
2021/06/08 07:57:03;;;;;;;51.28;30.27;;;18.60;99.90;;;;;;4991622;28;20022;-77
2021/06/08 07:59:29;;;;;;;47.38;27.33;;;18.70;99.90;;;;;;4989583;28;20030;-76
2021/06/08 08:01:54;;;;;;;59.20;29.67;;;18.80;99.90;;;;;;4990023;28;20038;-76
2021/06/08 08:04:20;;;;;;;48.72;27.55;;;18.80;99.90;;;;;;4981666;28;20477;-76
2021/06/08 08:06:51;;;;;;;47.80;27.65;;;18.90;99.90;;;;;;4972609;28;20118;-75
2021/06/08 08:09:18;;;;;;;46.67;28.02;;;18.80;99.90;;;;;;4975175;28;20026;-77
2021/06/08 08:11:46;;;;;;;46.63;27.42;;;18.90;99.90;;;;;;4974504;28;20035;-76
2021/06/08 08:14:14;;;;;;;43.47;25.15;;;19.00;99.90;;;;;;4973943;28;20023;-77
2021/06/08 08:16:46;;;;;;;46.22;26.42;;;19.10;99.90;;;;;;4974122;28;20350;-78
2021/06/08 08:19:14;;;;;;;53.90;27.25;;;19.30;99.90;;;;;;4981131;28;20048;-80
2021/06/08 08:21:39;;;;;;;51.80;28.55;;;19.20;99.90;;;;;;5001046;28;20026;-78
2021/06/08 08:24:05;;;;;;;48.97;26.00;;;19.20;99.90;;;;;;5008476;28;20552;-83
2021/06/08 08:26:31;;;;;;;44.88;27.70;;;19.20;99.90;;;;;;4993779;28;20027;-78
2021/06/08 08:29:00;;;;;;;42.67;26.23;;;19.30;99.90;;;;;;4993228;28;20042;-78
2021/06/08 08:31:28;;;;;;;42.70;27.45;;;19.50;99.90;;;;;;4993099;28;20035;-77
2021/06/08 08:33:55;;;;;;;46.28;27.27;;;19.60;99.90;;;;;;4993258;28;20117;-77
2021/06/08 08:36:21;;;;;;;43.50;26.98;;;19.60;99.90;;;;;;4991998;28;20030;-74
2021/06/08 08:38:47;;;;;;;46.08;28.30;;;19.70;99.90;;;;;;4995357;28;20440;-75
2021/06/08 08:41:13;;;;;;;45.70;26.85;;;20.20;99.90;;;;;;4992408;28;20026;-77
2021/06/08 08:43:41;;;;;;;45.85;27.67;;;20.60;99.90;;;;;;4993043;28;20081;-75
2021/06/08 08:46:07;;;;;;;49.28;27.58;;;21.10;99.70;;;;;;4986849;28;20027;-76
2021/06/08 08:48:33;;;;;;;52.42;28.13;;;21.50;99.20;;;;;;4974073;28;20034;-74
2021/06/08 08:50:59;;;;;;;47.00;27.60;;;21.60;98.50;;;;;;4975161;28;20050;-76
2021/06/08 08:53:26;;;;;;;41.65;26.90;;;21.50;98.10;;;;;;4988647;28;20034;-74
2021/06/08 08:55:51;;;;;;;46.47;27.45;;;21.40;98.10;;;;;;4993370;28;20499;-77
2021/06/08 08:58:17;;;;;;;44.03;27.63;;;21.40;98.30;;;;;;4993756;28;20098;-75
2021/06/08 09:00:45;;;;;;;46.05;27.13;;;21.40;98.20;;;;;;4992604;28;20101;-75
2021/06/08 09:03:14;;;;;;;50.10;29.83;;;21.40;98.30;;;;;;4994594;28;20084;-76
2021/06/08 09:05:41;;;;;;;48.72;27.85;;;21.30;98.30;;;;;;4973884;28;20074;-75
2021/06/08 09:08:09;;;;;;;44.43;28.67;;;21.50;98.30;;;;;;4987683;28;20125;-76
2021/06/08 09:10:36;;;;;;;44.92;27.88;;;21.70;98.10;;;;;;4992463;28;20308;-77
2021/06/08 09:13:03;;;;;;;48.83;29.70;;;22.00;98.10;;;;;;4992287;28;20045;-77
2021/06/08 09:15:29;;;;;;;44.50;28.38;;;22.00;97.40;;;;;;4992280;28;20026;-76
2021/06/08 09:17:57;;;;;;;53.53;29.85;;;22.10;97.60;;;;;;4993245;28;20023;-76
2021/06/08 09:20:23;;;;;;;47.70;31.67;;;21.90;97.30;;;;;;4992141;28;20130;-78
2021/06/08 09:22:54;;;;;;;43.45;29.50;;;22.10;97.40;;;;;;4980480;28;20050;-76
2021/06/08 09:25:38;;;;;;;45.33;29.88;;;22.10;97.30;;;;;;4980208;28;20453;-77
2021/06/08 09:28:25;;;;;;;45.05;29.83;;;22.00;96.90;;;;;;4986519;28;20041;-75
2021/06/08 09:30:59;;;;;;;46.85;30.23;;;21.80;97.10;;;;;;4947822;28;20030;-76
2021/06/08 09:33:30;;;;;;;48.95;30.20;;;21.80;97.30;;;;;;5002637;28;20140;-75
2021/06/08 09:36:17;;;;;;;46.22;30.92;;;21.70;97.60;;;;;;4993591;28;20052;-74
2021/06/08 09:38:57;;;;;;;49.78;29.15;;;21.90;97.30;;;;;;5010306;28;20041;-72
2021/06/08 09:41:28;;;;;;;51.83;29.20;;;22.00;97.40;;;;;;5011959;28;20474;-73
2021/06/08 09:44:10;;;;;;;44.65;27.30;;;22.20;97.10;;;;;;5011358;28;20053;-75
2021/06/08 09:46:53;;;;;;;46.38;28.42;;;22.40;97.00;;;;;;5011428;28;20116;-76
2021/06/08 09:49:33;;;;;;;40.80;27.35;;;22.60;96.60;;;;;;5011623;28;20466;-73
2021/06/08 09:52:00;;;;;;;43.10;28.63;;;22.80;96.60;;;;;;5011495;28;20260;-75
2021/06/08 09:54:36;;;;;;;43.05;26.90;;;22.60;96.20;;;;;;5011190;28;20030;-75
2021/06/08 09:57:23;;;;;;;41.53;28.05;;;22.80;96.20;;;;;;5012910;28;20018;-74
2021/06/08 10:00:00;;;;;;;46.17;28.52;;;22.90;96.10;;;;;;5011687;28;20133;-74
2021/06/08 10:02:41;;;;;;;41.40;27.38;;;23.20;95.60;;;;;;5011562;28;20341;-76
2021/06/08 10:05:30;;;;;;;39.47;26.70;;;23.40;95.50;;;;;;5011159;28;20516;-76
2021/06/08 10:07:59;;;;;;;35.10;24.90;;;23.40;94.90;;;;;;5011273;28;20034;-74
2021/06/08 10:10:36;;;;;;;43.50;26.63;;;23.30;95.10;;;;;;5011201;28;20066;-74
2021/06/08 10:13:11;;;;;;;36.15;24.58;;;23.40;95.00;;;;;;5011772;28;20073;-76
2021/06/08 10:15:55;;;;;;;34.67;23.20;;;23.40;94.70;;;;;;5025467;28;20038;-76
2021/06/08 10:18:21;;;;;;;40.88;26.60;;;23.50;94.60;;;;;;5011288;28;20029;-74
2021/06/08 10:20:53;;;;;;;41.15;25.40;;;23.60;94.80;;;;;;5012206;28;20022;-75
2021/06/08 10:23:26;;;;;;;39.38;26.30;;;23.60;94.70;;;;;;5010661;28;20041;-76
2021/06/08 10:26:00;;;;;;;38.00;25.27;;;23.70;94.20;;;;;;5009404;28;20030;-77
2021/06/08 10:28:27;;;;;;;30.13;21.02;;;23.70;94.30;;;;;;5009789;28;20054;-75
2021/06/08 10:30:54;;;;;;;35.60;23.13;;;24.00;93.80;;;;;;5009156;28;20065;-75
2021/06/08 10:33:22;;;;;;;39.38;21.50;;;24.10;93.80;;;;;;5011410;28;20040;-74
2021/06/08 10:35:49;;;;;;;31.20;20.30;;;24.20;93.30;;;;;;5011053;28;20133;-73
2021/06/08 10:38:15;;;;;;;27.73;19.73;;;24.20;93.50;;;;;;5010891;28;20046;-74
2021/06/08 10:40:44;;;;;;;28.80;17.60;;;24.40;93.10;;;;;;5010542;28;20050;-74
2021/06/08 10:43:20;;;;;;;26.65;16.25;;;24.30;92.60;;;;;;5009379;28;20412;-74
2021/06/08 10:45:46;;;;;;;23.60;16.92;;;24.40;92.80;;;;;;5010116;28;20042;-75
2021/06/08 10:48:21;;;;;;;22.33;15.10;;;24.50;92.70;;;;;;5011929;28;20018;-76
2021/06/08 10:51:07;;;;;;;25.08;15.80;;;24.60;92.50;;;;;;5010567;28;20102;-75
2021/06/08 10:53:35;;;;;;;25.25;16.55;;;24.60;92.40;;;;;;5009200;28;20042;-74
2021/06/08 10:56:17;;;;;;;26.60;15.85;;;24.60;92.20;;;;;;5010101;28;20061;-74
2021/06/08 10:58:58;;;;;;;20.45;13.73;;;24.60;92.30;;;;;;5009858;28;20396;-75
2021/06/08 11:01:42;;;;;;;26.13;15.77;;;24.80;92.30;;;;;;5009588;28;20042;-74
2021/06/08 11:04:23;;;;;;;21.52;15.25;;;24.50;92.10;;;;;;5008601;28;20050;-74
2021/06/08 11:06:51;;;;;;;24.67;14.68;;;24.50;92.10;;;;;;5010116;28;20361;-74
2021/06/08 11:09:23;;;;;;;22.85;14.27;;;24.70;92.50;;;;;;5011469;28;20472;-74
2021/06/08 11:11:55;;;;;;;21.45;14.98;;;24.80;92.70;;;;;;5010130;28;20096;-74
2021/06/08 11:17:04;;;;;;;23.13;14.02;;;24.80;92.40;;;;;;5009470;28;20038;-75
2021/06/08 11:19:51;;;;;;;24.73;14.07;;;24.80;92.10;;;;;;5009569;28;20449;-78
2021/06/08 11:22:20;;;;;;;20.88;13.13;;;24.90;92.10;;;;;;5009412;28;20034;-75
2021/06/08 11:24:51;;;;;;;21.00;12.93;;;24.80;91.60;;;;;;5009177;28;20049;-75
2021/06/08 11:27:18;;;;;;;21.67;13.68;;;24.70;91.60;;;;;;5010865;28;20461;-73
2021/06/08 11:29:54;;;;;;;26.58;14.07;;;24.40;91.60;;;;;;5009545;28;20045;-78
2021/06/08 11:32:29;;;;;;;17.80;12.63;;;24.50;92.00;;;;;;5009450;28;20033;-73
2021/06/08 11:35:19;;;;;;;19.90;12.40;;;24.50;92.10;;;;;;5008389;28;20037;-73
2021/06/08 11:38:26;;;;;;;19.38;12.20;;;24.50;92.40;;;;;;5009303;28;20045;-74
2021/06/08 11:40:59;;;;;;;17.52;12.60;;;24.50;92.10;;;;;;5008937;28;20114;-74
2021/06/08 11:43:25;;;;;;;18.40;13.13;;;24.40;92.90;;;;;;5009216;28;20058;-75
2021/06/08 11:46:05;;;;;;;17.55;11.77;;;24.40;92.30;;;;;;4995710;28;20491;-75
2021/06/08 11:48:32;;;;;;;18.15;12.07;;;24.50;92.20;;;;;;4989754;28;20030;-74
2021/06/08 11:50:59;;;;;;;21.20;12.10;;;24.50;92.10;;;;;;4990530;28;20113;-76
2021/06/08 11:53:25;;;;;;;20.48;13.20;;;24.60;92.10;;;;;;4990030;28;20057;-75
2021/06/08 11:56:12;;;;;;;19.85;12.25;;;24.70;91.90;;;;;;4990099;28;20053;-77
2021/06/08 11:58:39;;;;;;;19.55;12.93;;;24.70;91.90;;;;;;4979712;28;20034;-76
2021/06/08 12:01:07;;;;;;;17.97;12.47;;;24.70;91.80;;;;;;4976337;28;20038;-75
2021/06/08 12:03:37;;;;;;;16.38;11.68;;;24.80;91.70;;;;;;4989849;28;20371;-76
2021/06/08 12:06:06;;;;;;;16.90;11.50;;;24.80;91.60;;;;;;4991394;28;20164;-76
2021/06/08 12:08:33;;;;;;;23.50;16.33;;;24.90;91.60;;;;;;4989677;28;20088;-75
2021/06/08 12:11:16;;;;;;;18.60;12.57;;;24.90;91.80;;;;;;4989560;28;20041;-76
2021/06/08 12:13:43;;;;;;;18.30;12.00;;;24.90;91.50;;;;;;4988520;28;20037;-77
2021/06/08 12:16:16;;;;;;;20.75;12.55;;;24.70;91.80;;;;;;4989729;28;20392;-80
2021/06/08 12:18:42;;;;;;;20.42;14.88;;;24.70;91.70;;;;;;4990028;28;20117;-75
2021/06/08 12:21:15;;;;;;;16.00;11.52;;;24.90;91.90;;;;;;4991246;28;20030;-76
2021/06/08 12:23:42;;;;;;;15.98;12.48;;;24.80;91.70;;;;;;4970910;28;20038;-75
2021/06/08 12:26:09;;;;;;;17.98;11.95;;;24.80;92.00;;;;;;4970199;28;20050;-75
2021/06/08 12:28:35;;;;;;;19.60;12.20;;;24.90;92.00;;;;;;4969820;28;20031;-74
2021/06/08 12:31:18;;;;;;;17.98;12.65;;;24.90;91.90;;;;;;4975445;28;20039;-76
2021/06/08 12:33:44;;;;;;;20.73;13.02;;;25.00;91.80;;;;;;4989390;28;20052;-73
2021/06/08 12:36:11;;;;;;;23.25;17.20;;;24.80;91.70;;;;;;4991024;28;20022;-76
2021/06/08 12:38:53;;;;;;;27.05;16.30;;;24.70;92.30;;;;;;4971243;28;20057;-75
2021/06/08 12:41:25;;;;;;;19.70;12.85;;;24.70;92.10;;;;;;4985779;28;20053;-76
2021/06/08 12:43:55;;;;;;;17.58;12.75;;;25.00;92.20;;;;;;4987702;28;20145;-75